Time;durP1;ratioP1;P1;durP2;ratioP2;P2;SDS_P1;SDS_P2;PMS_P1;PMS_P2;Temp;Humidity;BMP_temperature;BMP_pressure;BME280_temperature;BME280_humidity;BME280_pressure;Samples;Min_cycle;Max_cycle;Signal;HPM_P1;HPM_P2
2024/01/07 00:01:11;;;;;;;;;;;19.20;53.30;;;;;;4996539;28;19972;-61
2024/01/07 00:03:36;;;;;;;;;;;19.20;53.30;;;;;;4995175;28;20282;-61
2024/01/07 00:06:02;;;;;;;;;;;19.20;53.10;;;;;;4994151;28;20333;-62
2024/01/07 00:08:27;;;;;;;;;;;19.20;53.10;;;;;;4996196;28;19926;-62
2024/01/07 00:10:53;;;;;;;;;;;19.20;53.10;;;;;;4996145;28;19937;-61
2024/01/07 00:13:18;;;;;;;;;;;19.20;53.20;;;;;;4995937;28;20387;-61
2024/01/07 00:15:44;;;;;;;;;;;19.10;53.00;;;;;;4996530;28;19930;-61
2024/01/07 00:18:09;;;;;;;;;;;19.10;53.00;;;;;;4995988;28;19972;-61
2024/01/07 00:20:35;;;;;;;;;;;19.10;53.00;;;;;;4995281;28;19933;-61
2024/01/07 00:23:01;;;;;;;;;;;19.10;53.00;;;;;;5015266;28;19925;-61
2024/01/07 00:25:26;;;;;;;;;;;19.10;53.00;;;;;;5017848;28;19925;-62
2024/01/07 00:27:55;;;;;;;;;;;19.10;53.00;;;;;;5034451;28;19952;-62
2024/01/07 00:30:20;;;;;;;;;;;19.00;52.90;;;;;;5017802;28;20324;-62
2024/01/07 00:32:46;;;;;;;;;;;19.00;52.90;;;;;;5034106;28;19980;-62
2024/01/07 00:35:12;;;;;;;;;;;19.00;52.90;;;;;;5016402;28;19933;-61
2024/01/07 00:37:37;;;;;;;;;;;19.00;52.90;;;;;;5035310;28;19932;-62
2024/01/07 00:40:03;;;;;;;;;;;19.00;52.90;;;;;;5034133;28;19964;-62
2024/01/07 00:42:29;;;;;;;;;;;19.00;52.80;;;;;;5034972;28;19929;-61
2024/01/07 00:44:54;;;;;;;;;;;19.00;52.90;;;;;;5035041;28;19932;-63
2024/01/07 00:47:20;;;;;;;;;;;19.00;52.70;;;;;;5034545;28;19971;-62
2024/01/07 00:49:45;;;;;;;;;;;18.90;52.70;;;;;;5017117;28;19925;-62
2024/01/07 00:52:11;;;;;;;;;;;18.90;52.60;;;;;;5035167;28;19929;-61
2024/01/07 00:54:36;;;;;;;;;;;18.90;52.60;;;;;;5033971;28;19926;-62
2024/01/07 00:57:02;;;;;;;;;;;18.90;52.80;;;;;;5034407;28;19925;-61
2024/01/07 00:59:28;;;;;;;;;;;18.90;52.70;;;;;;5031620;28;20031;-61
2024/01/07 01:01:54;;;;;;;;;;;18.90;52.70;;;;;;5013849;28;19941;-62
2024/01/07 01:04:19;;;;;;;;;;;18.90;52.70;;;;;;5023981;28;19925;-62
2024/01/07 01:06:45;;;;;;;;;;;18.90;52.70;;;;;;5034772;28;20273;-62
2024/01/07 01:09:10;;;;;;;;;;;18.90;52.60;;;;;;5033722;28;19925;-61
2024/01/07 01:11:36;;;;;;;;;;;18.90;52.70;;;;;;5034707;28;19971;-62
2024/01/07 01:14:01;;;;;;;;;;;18.90;52.60;;;;;;5034042;28;19925;-62
2024/01/07 01:16:27;;;;;;;;;;;18.90;52.60;;;;;;5017424;28;20297;-62
2024/01/07 01:18:52;;;;;;;;;;;18.80;52.50;;;;;;5001764;28;19926;-62
2024/01/07 01:21:17;;;;;;;;;;;18.80;52.50;;;;;;5034671;28;20402;-62
2024/01/07 01:23:43;;;;;;;;;;;18.80;52.60;;;;;;5033349;28;19933;-62
2024/01/07 01:26:09;;;;;;;;;;;18.80;52.60;;;;;;5034097;28;20453;-62
2024/01/07 01:28:34;;;;;;;;;;;18.80;52.60;;;;;;5034257;28;20272;-62
2024/01/07 01:31:00;;;;;;;;;;;18.80;52.50;;;;;;5052381;28;19928;-62
2024/01/07 01:33:25;;;;;;;;;;;18.80;52.50;;;;;;5036284;28;19925;-62
2024/01/07 01:35:51;;;;;;;;;;;18.80;52.50;;;;;;5034459;28;19933;-61
2024/01/07 01:38:16;;;;;;;;;;;18.80;52.50;;;;;;5033000;28;19964;-62
2024/01/07 01:40:42;;;;;;;;;;;18.80;52.50;;;;;;5033864;28;19975;-62
2024/01/07 01:43:07;;;;;;;;;;;18.80;52.60;;;;;;5016140;28;20400;-62
2024/01/07 01:45:33;;;;;;;;;;;18.80;52.60;;;;;;5033298;28;19925;-61
2024/01/07 01:47:58;;;;;;;;;;;18.80;52.60;;;;;;5033674;28;19936;-62
2024/01/07 01:50:24;;;;;;;;;;;18.80;52.70;;;;;;5015678;28;20368;-62
2024/01/07 01:52:50;;;;;;;;;;;18.80;52.60;;;;;;5034229;28;19925;-61
2024/01/07 01:55:15;;;;;;;;;;;18.80;52.60;;;;;;4999779;28;19925;-61
2024/01/07 01:57:41;;;;;;;;;;;18.80;52.50;;;;;;5015299;28;19929;-62
2024/01/07 02:00:08;;;;;;;;;;;18.80;52.50;;;;;;5033407;28;19925;-61
2024/01/07 02:02:34;;;;;;;;;;;18.80;52.50;;;;;;5015685;28;19932;-62
2024/01/07 02:05:02;;;;;;;;;;;18.80;52.50;;;;;;5032808;28;19925;-62
2024/01/07 02:07:28;;;;;;;;;;;18.80;52.50;;;;;;5033936;28;19925;-62
2024/01/07 02:09:54;;;;;;;;;;;18.80;52.40;;;;;;5034815;28;20059;-62
2024/01/07 02:12:19;;;;;;;;;;;18.80;52.30;;;;;;5033158;28;19925;-62
2024/01/07 02:14:44;;;;;;;;;;;18.90;52.50;;;;;;5033453;28;20328;-62
2024/01/07 02:17:10;;;;;;;;;;;18.80;52.40;;;;;;5015655;28;19932;-62
2024/01/07 02:19:35;;;;;;;;;;;18.80;52.40;;;;;;5032321;28;19932;-62
2024/01/07 02:22:01;;;;;;;;;;;18.80;52.30;;;;;;5032930;28;20015;-62
2024/01/07 02:24:26;;;;;;;;;;;18.80;52.30;;;;;;5033621;28;19925;-62
2024/01/07 02:26:52;;;;;;;;;;;18.80;52.30;;;;;;5014854;28;19929;-62
2024/01/07 02:29:17;;;;;;;;;;;18.80;52.20;;;;;;5033246;28;20347;-62
2024/01/07 02:31:43;;;;;;;;;;;18.80;52.20;;;;;;5033449;28;20024;-62
2024/01/07 02:34:09;;;;;;;;;;;18.80;52.20;;;;;;5032163;28;20416;-62
2024/01/07 02:36:34;;;;;;;;;;;18.80;52.20;;;;;;5033439;28;20347;-62
2024/01/07 02:39:00;;;;;;;;;;;18.80;52.20;;;;;;5033008;28;19963;-62
2024/01/07 02:41:26;;;;;;;;;;;18.90;52.20;;;;;;5032342;28;19933;-61
2024/01/07 02:43:52;;;;;;;;;;;18.80;52.20;;;;;;5032395;28;20332;-62
2024/01/07 02:46:17;;;;;;;;;;;18.80;52.20;;;;;;5033055;28;20395;-62
2024/01/07 02:48:43;;;;;;;;;;;18.90;52.20;;;;;;5032318;28;19925;-62
2024/01/07 02:51:08;;;;;;;;;;;18.80;52.00;;;;;;5032861;28;19925;-62
2024/01/07 02:53:34;;;;;;;;;;;18.90;52.10;;;;;;5032405;28;20399;-62
2024/01/07 02:55:59;;;;;;;;;;;18.80;52.00;;;;;;5031648;28;19929;-61
2024/01/07 02:58:25;;;;;;;;;;;18.80;52.00;;;;;;5032886;28;19925;-61
2024/01/07 03:00:50;;;;;;;;;;;18.90;52.10;;;;;;5031560;28;19925;-62
2024/01/07 03:03:16;;;;;;;;;;;18.90;52.10;;;;;;5032616;28;19933;-62
2024/01/07 03:05:41;;;;;;;;;;;18.90;52.10;;;;;;5032144;28;19983;-62
2024/01/07 03:08:07;;;;;;;;;;;18.90;52.00;;;;;;5032057;28;19925;-62
2024/01/07 03:10:33;;;;;;;;;;;18.90;51.90;;;;;;5033024;28;20404;-61
2024/01/07 03:12:59;;;;;;;;;;;18.90;52.00;;;;;;5032659;28;19925;-62
2024/01/07 03:15:24;;;;;;;;;;;18.90;51.90;;;;;;5014547;28;19929;-62
2024/01/07 03:17:50;;;;;;;;;;;18.90;51.90;;;;;;5032685;28;19929;-62
2024/01/07 03:20:15;;;;;;;;;;;18.90;51.90;;;;;;5032319;28;19947;-62
2024/01/07 03:22:41;;;;;;;;;;;18.90;51.90;;;;;;5031393;28;19928;-62
2024/01/07 03:25:07;;;;;;;;;;;18.90;51.80;;;;;;5032581;28;19972;-62
2024/01/07 03:27:32;;;;;;;;;;;18.90;51.90;;;;;;5032696;28;20287;-62
2024/01/07 03:29:58;;;;;;;;;;;18.90;51.80;;;;;;5036523;28;19925;-62
2024/01/07 03:32:23;;;;;;;;;;;18.90;51.80;;;;;;5052507;28;19963;-62
2024/01/07 03:34:49;;;;;;;;;;;18.90;51.70;;;;;;5047519;28;19932;-62
2024/01/07 03:37:14;;;;;;;;;;;18.90;51.80;;;;;;5031611;28;19929;-62
2024/01/07 03:39:40;;;;;;;;;;;18.90;51.70;;;;;;5032707;28;19967;-62
2024/01/07 03:42:11;;;;;;;;;;;18.90;51.70;;;;;;5047987;28;20434;-62
2024/01/07 03:44:37;;;;;;;;;;;18.90;51.70;;;;;;5049065;28;19987;-62
2024/01/07 03:47:02;;;;;;;;;;;19.00;51.70;;;;;;5032566;28;19929;-61
2024/01/07 03:49:28;;;;;;;;;;;19.00;51.70;;;;;;5032628;28;19925;-62
2024/01/07 03:51:53;;;;;;;;;;;19.00;51.70;;;;;;5013621;28;20303;-62
2024/01/07 03:54:19;;;;;;;;;;;19.00;51.70;;;;;;5032742;28;20634;-62
2024/01/07 03:56:44;;;;;;;;;;;19.00;51.70;;;;;;5032222;28;20396;-62
2024/01/07 03:59:09;;;;;;;;;;;19.00;51.60;;;;;;5031406;28;20038;-62
2024/01/07 04:01:35;;;;;;;;;;;19.00;51.60;;;;;;5032199;28;19925;-61
2024/01/07 04:04:00;;;;;;;;;;;19.00;51.60;;;;;;5030698;28;19991;-62
2024/01/07 04:06:26;;;;;;;;;;;19.00;51.50;;;;;;5014288;28;20384;-62
2024/01/07 04:08:51;;;;;;;;;;;19.00;51.40;;;;;;5034107;28;20018;-59
2024/01/07 04:11:17;;;;;;;;;;;19.00;51.40;;;;;;5017582;28;20292;-59
2024/01/07 04:13:42;;;;;;;;;;;19.00;51.40;;;;;;5035555;28;19929;-61
2024/01/07 04:16:18;;;;;;;;;;;19.10;51.50;;;;;;5035667;28;20292;-61
2024/01/07 04:18:43;;;;;;;;;;;19.10;51.40;;;;;;5034824;28;20399;-62
2024/01/07 04:21:09;;;;;;;;;;;19.10;51.40;;;;;;5035310;28;20019;-61
2024/01/07 04:23:35;;;;;;;;;;;19.10;51.30;;;;;;5035332;28;19929;-61
2024/01/07 04:26:00;;;;;;;;;;;19.10;51.30;;;;;;5034448;28;20289;-61
2024/01/07 04:28:26;;;;;;;;;;;19.10;51.30;;;;;;5035553;28;19925;-61
2024/01/07 04:30:51;;;;;;;;;;;19.10;51.30;;;;;;5035040;28;19925;-61
2024/01/07 04:33:17;;;;;;;;;;;19.10;51.30;;;;;;5016512;28;20297;-61
2024/01/07 04:35:42;;;;;;;;;;;19.10;51.20;;;;;;5035279;28;20856;-61
2024/01/07 04:38:08;;;;;;;;;;;19.20;51.20;;;;;;5048629;28;20447;-61
2024/01/07 04:40:34;;;;;;;;;;;19.20;51.20;;;;;;5029075;28;19979;-61
2024/01/07 04:42:59;;;;;;;;;;;19.20;51.10;;;;;;5034703;28;19929;-61
2024/01/07 04:45:25;;;;;;;;;;;19.20;51.10;;;;;;5035054;28;19971;-61
2024/01/07 04:47:50;;;;;;;;;;;19.20;51.00;;;;;;5034116;28;20257;-61
2024/01/07 04:50:19;;;;;;;;;;;19.20;51.20;;;;;;5034832;28;20433;-61
2024/01/07 04:52:46;;;;;;;;;;;19.20;51.00;;;;;;5035247;28;19931;-61
2024/01/07 04:55:11;;;;;;;;;;;19.20;51.10;;;;;;5034087;28;20557;-61
2024/01/07 04:57:37;;;;;;;;;;;19.20;51.00;;;;;;5035298;28;20382;-61
2024/01/07 05:00:03;;;;;;;;;;;19.30;51.10;;;;;;5034624;28;19921;-61
2024/01/07 05:02:28;;;;;;;;;;;19.30;50.90;;;;;;5033557;28;20403;-61
2024/01/07 05:04:54;;;;;;;;;;;19.30;50.90;;;;;;5034041;28;19980;-61
2024/01/07 05:07:19;;;;;;;;;;;19.20;51.00;;;;;;5033848;28;19974;-61
2024/01/07 05:09:45;;;;;;;;;;;19.30;51.00;;;;;;5034539;28;20388;-61
2024/01/07 05:12:10;;;;;;;;;;;19.30;50.90;;;;;;5034318;28;20511;-61
2024/01/07 05:14:37;;;;;;;;;;;19.30;51.00;;;;;;5016516;28;19921;-61
2024/01/07 05:17:02;;;;;;;;;;;19.30;50.90;;;;;;5034299;28;19925;-61
2024/01/07 05:19:28;;;;;;;;;;;19.30;50.80;;;;;;5033951;28;19928;-61
2024/01/07 05:21:53;;;;;;;;;;;19.30;50.80;;;;;;5040656;28;20439;-61
2024/01/07 05:24:19;;;;;;;;;;;19.30;50.80;;;;;;5054652;28;20390;-61
2024/01/07 05:26:45;;;;;;;;;;;19.40;50.80;;;;;;5039758;28;19929;-61
2024/01/07 05:29:11;;;;;;;;;;;19.40;50.80;;;;;;5033373;28;20404;-61
2024/01/07 05:31:36;;;;;;;;;;;19.40;50.80;;;;;;5034161;28;20067;-61
2024/01/07 05:34:02;;;;;;;;;;;19.40;50.70;;;;;;5033592;28;19972;-61
2024/01/07 05:36:27;;;;;;;;;;;19.40;50.80;;;;;;5033526;28;19925;-61
2024/01/07 05:38:53;;;;;;;;;;;19.40;50.70;;;;;;5033397;28;20365;-61
2024/01/07 05:41:18;;;;;;;;;;;19.40;50.70;;;;;;5032063;28;19925;-61
2024/01/07 05:43:44;;;;;;;;;;;19.40;50.70;;;;;;5038289;28;19929;-61
2024/01/07 05:46:11;;;;;;;;;;;19.40;51.40;;;;;;5039626;28;20351;-61
2024/01/07 05:48:40;;;;;;;;;;;19.40;50.60;;;;;;5033489;28;19932;-61
2024/01/07 05:51:06;;;;;;;;;;;19.40;50.70;;;;;;5033060;28;19925;-61
2024/01/07 05:53:31;;;;;;;;;;;19.40;50.70;;;;;;5033726;28;20023;-61
2024/01/07 05:55:57;;;;;;;;;;;19.40;50.60;;;;;;5033419;28;20392;-61
2024/01/07 05:58:22;;;;;;;;;;;19.40;50.60;;;;;;5032803;28;19968;-61
2024/01/07 06:00:48;;;;;;;;;;;19.50;50.60;;;;;;5050355;28;20434;-61
2024/01/07 06:03:14;;;;;;;;;;;19.50;50.50;;;;;;5052100;28;19971;-61
2024/01/07 06:05:39;;;;;;;;;;;19.50;50.60;;;;;;5037658;28;19929;-61
2024/01/07 06:08:05;;;;;;;;;;;19.50;50.60;;;;;;5033189;28;19965;-61
2024/01/07 06:10:31;;;;;;;;;;;19.40;50.40;;;;;;5033067;28;19932;-61
2024/01/07 06:12:56;;;;;;;;;;;19.50;50.40;;;;;;5033606;28;19925;-61
2024/01/07 06:15:22;;;;;;;;;;;19.50;50.50;;;;;;5033640;28;20017;-61
2024/01/07 06:17:48;;;;;;;;;;;19.50;50.40;;;;;;5033023;28;19932;-62
2024/01/07 06:20:14;;;;;;;;;;;19.50;50.40;;;;;;5047845;28;19925;-61
2024/01/07 06:22:39;;;;;;;;;;;19.50;50.40;;;;;;5053316;28;19925;-61
2024/01/07 06:25:05;;;;;;;;;;;19.50;50.30;;;;;;5052346;28;19936;-62
2024/01/07 06:27:30;;;;;;;;;;;19.50;50.40;;;;;;5053413;28;19924;-61
2024/01/07 06:29:56;;;;;;;;;;;19.50;50.30;;;;;;5052980;28;20404;-61
2024/01/07 06:32:21;;;;;;;;;;;19.50;50.20;;;;;;5046593;28;19933;-61
2024/01/07 06:34:47;;;;;;;;;;;19.50;50.30;;;;;;5033325;28;19940;-61
2024/01/07 06:37:12;;;;;;;;;;;19.50;50.10;;;;;;5033238;28;19925;-62
2024/01/07 06:39:38;;;;;;;;;;;19.50;50.10;;;;;;5032635;28;19932;-61
2024/01/07 06:42:04;;;;;;;;;;;19.50;50.10;;;;;;5033214;28;19929;-61
2024/01/07 06:44:29;;;;;;;;;;;19.50;50.10;;;;;;5033416;28;20295;-62
2024/01/07 06:46:55;;;;;;;;;;;19.50;50.10;;;;;;5031613;28;19936;-61
2024/01/07 06:49:20;;;;;;;;;;;19.50;50.10;;;;;;5044667;28;19974;-61
2024/01/07 06:51:46;;;;;;;;;;;19.50;50.00;;;;;;5053215;28;20406;-61
2024/01/07 06:54:11;;;;;;;;;;;19.50;50.00;;;;;;5052155;28;19987;-61
2024/01/07 06:56:37;;;;;;;;;;;19.60;50.10;;;;;;5053035;28;20292;-61
2024/01/07 06:59:02;;;;;;;;;;;19.60;50.10;;;;;;5052899;28;19925;-60
2024/01/07 07:01:28;;;;;;;;;;;19.60;50.00;;;;;;5016272;28;20308;-59
2024/01/07 07:03:53;;;;;;;;;;;19.60;49.90;;;;;;5015200;28;19929;-59
2024/01/07 07:06:18;;;;;;;;;;;19.60;49.90;;;;;;5031685;28;19987;-60
2024/01/07 07:08:45;;;;;;;;;;;19.60;49.80;;;;;;5038029;28;19921;-59
2024/01/07 07:11:10;;;;;;;;;;;19.60;49.80;;;;;;5032752;28;20022;-60
2024/01/07 07:13:36;;;;;;;;;;;19.60;49.80;;;;;;5032707;28;20466;-59
2024/01/07 07:16:01;;;;;;;;;;;19.60;49.80;;;;;;5031791;28;19921;-60
2024/01/07 07:18:26;;;;;;;;;;;19.60;49.80;;;;;;5032362;28;19925;-60
2024/01/07 07:20:52;;;;;;;;;;;19.60;49.70;;;;;;5042507;28;20028;-60
2024/01/07 07:23:17;;;;;;;;;;;19.60;50.40;;;;;;5039843;28;19924;-60
2024/01/07 07:25:43;;;;;;;;;;;19.60;49.70;;;;;;5032532;28;19935;-60
2024/01/07 07:28:09;;;;;;;;;;;19.60;49.70;;;;;;5051387;28;19925;-60
2024/01/07 07:30:34;;;;;;;;;;;19.60;49.60;;;;;;5023108;28;20036;-60
2024/01/07 07:32:59;;;;;;;;;;;19.60;49.60;;;;;;5032234;28;19934;-60
2024/01/07 07:35:25;;;;;;;;;;;19.60;49.60;;;;;;5031577;28;19936;-60
2024/01/07 07:37:50;;;;;;;;;;;19.60;49.50;;;;;;5032557;28;19925;-59
2024/01/07 07:40:16;;;;;;;;;;;19.60;49.50;;;;;;5014448;28;19931;-60
2024/01/07 07:42:41;;;;;;;;;;;19.70;49.50;;;;;;5033772;28;19925;-60
2024/01/07 07:45:07;;;;;;;;;;;19.60;49.50;;;;;;5036010;28;20308;-60
2024/01/07 07:47:33;;;;;;;;;;;19.70;49.50;;;;;;5038781;28;19921;-61
2024/01/07 07:49:58;;;;;;;;;;;19.70;49.50;;;;;;5050753;28;19932;-60
2024/01/07 07:52:25;;;;;;;;;;;19.70;49.40;;;;;;5045440;28;19925;-59
2024/01/07 07:54:51;;;;;;;;;;;19.60;49.40;;;;;;5038540;28;20011;-59
2024/01/07 07:57:17;;;;;;;;;;;19.70;49.40;;;;;;5042458;28;20458;-60
2024/01/07 07:59:42;;;;;;;;;;;19.70;49.40;;;;;;5041590;28;19925;-59
2024/01/07 08:02:08;;;;;;;;;;;19.70;49.30;;;;;;5035366;28;19932;-59
2024/01/07 08:04:33;;;;;;;;;;;19.70;49.30;;;;;;5035189;28;20032;-60
2024/01/07 08:07:00;;;;;;;;;;;19.70;49.40;;;;;;5016365;28;19929;-58
2024/01/07 08:09:26;;;;;;;;;;;19.70;49.50;;;;;;5054870;28;19929;-58
2024/01/07 08:11:51;;;;;;;;;;;19.70;49.40;;;;;;5041106;28;19932;-59
2024/01/07 08:14:17;;;;;;;;;;;19.70;49.40;;;;;;5018039;28;19925;-58
2024/01/07 08:16:42;;;;;;;;;;;19.70;49.40;;;;;;5035388;28;19925;-59
2024/01/07 08:19:07;;;;;;;;;;;19.70;49.40;;;;;;5034628;28;20011;-59
2024/01/07 08:21:33;;;;;;;;;;;19.80;49.60;;;;;;5035408;28;19932;-59
2024/01/07 08:23:58;;;;;;;;;;;19.80;49.60;;;;;;5035204;28;19968;-59
2024/01/07 08:26:24;;;;;;;;;;;19.80;49.70;;;;;;5034807;28;19932;-59
2024/01/07 08:28:49;;;;;;;;;;;19.80;49.70;;;;;;5035855;28;20361;-59
2024/01/07 08:31:15;;;;;;;;;;;19.80;49.80;;;;;;5021943;28;20007;-58
2024/01/07 08:33:40;;;;;;;;;;;19.80;49.90;;;;;;5035597;28;19932;-58
2024/01/07 08:36:06;;;;;;;;;;;19.80;50.00;;;;;;5035076;28;19925;-58
2024/01/07 08:38:32;;;;;;;;;;;19.90;50.20;;;;;;5034822;28;19925;-58
2024/01/07 08:40:57;;;;;;;;;;;19.80;50.20;;;;;;5035355;28;19925;-58
2024/01/07 08:43:22;;;;;;;;;;;19.90;50.30;;;;;;5017372;28;19925;-59
2024/01/07 08:45:48;;;;;;;;;;;19.90;50.40;;;;;;5034401;28;20444;-59
2024/01/07 08:48:13;;;;;;;;;;;19.90;50.40;;;;;;5034874;28;19929;-59
2024/01/07 08:50:39;;;;;;;;;;;19.90;50.40;;;;;;5034865;28;19932;-58
2024/01/07 08:53:04;;;;;;;;;;;19.90;50.40;;;;;;5033767;28;19936;-58
2024/01/07 08:55:30;;;;;;;;;;;19.90;50.50;;;;;;5034773;28;19982;-58
2024/01/07 08:57:56;;;;;;;;;;;20.00;50.60;;;;;;5034900;28;20249;-58
2024/01/07 09:00:25;;;;;;;;;;;19.90;50.50;;;;;;5034064;28;20070;-58
2024/01/07 09:02:51;;;;;;;;;;;19.90;50.50;;;;;;5035017;28;19932;-58
2024/01/07 09:05:17;;;;;;;;;;;20.00;50.60;;;;;;5034877;28;20019;-58
2024/01/07 09:07:42;;;;;;;;;;;20.00;50.60;;;;;;5033948;28;20369;-58
2024/01/07 09:10:10;;;;;;;;;;;20.00;50.40;;;;;;5034540;28;19925;-58
2024/01/07 09:12:37;;;;;;;;;;;20.00;50.40;;;;;;5034614;28;19936;-60
2024/01/07 09:15:03;;;;;;;;;;;20.00;50.40;;;;;;5033776;28;19979;-60
2024/01/07 09:17:29;;;;;;;;;;;20.00;50.60;;;;;;5034626;28;19925;-60
2024/01/07 09:19:55;;;;;;;;;;;20.10;50.80;;;;;;5034340;28;19939;-60
2024/01/07 09:22:21;;;;;;;;;;;20.00;50.60;;;;;;5033638;28;19925;-60
2024/01/07 09:24:47;;;;;;;;;;;20.10;50.70;;;;;;5034847;28;19925;-60
2024/01/07 09:27:12;;;;;;;;;;;20.10;50.70;;;;;;5034047;28;19932;-60
2024/01/07 09:29:37;;;;;;;;;;;20.10;50.70;;;;;;5015410;28;20007;-61
2024/01/07 09:32:03;;;;;;;;;;;20.10;50.60;;;;;;5032174;28;19979;-60
2024/01/07 09:34:29;;;;;;;;;;;20.10;50.60;;;;;;5033597;28;19931;-67
2024/01/07 09:36:54;;;;;;;;;;;20.10;50.60;;;;;;5033209;28;20392;-61
2024/01/07 09:39:20;;;;;;;;;;;20.20;50.50;;;;;;5033979;28;19929;-61
2024/01/07 09:41:46;;;;;;;;;;;20.20;50.40;;;;;;5032368;28;19929;-61
2024/01/07 09:44:11;;;;;;;;;;;20.10;50.30;;;;;;5034076;28;19929;-61
2024/01/07 09:46:37;;;;;;;;;;;20.10;50.30;;;;;;5034220;28;19925;-61
2024/01/07 09:49:02;;;;;;;;;;;20.10;50.20;;;;;;5033311;28;19986;-60
2024/01/07 09:51:28;;;;;;;;;;;20.10;50.10;;;;;;5034205;28;19925;-60
2024/01/07 09:53:55;;;;;;;;;;;20.10;50.10;;;;;;5034005;28;19925;-60
2024/01/07 09:56:23;;;;;;;;;;;20.10;50.20;;;;;;5033383;28;19925;-60
2024/01/07 09:58:49;;;;;;;;;;;20.10;50.10;;;;;;5016203;28;20269;-60
2024/01/07 10:01:17;;;;;;;;;;;20.10;50.10;;;;;;5033774;28;19925;-60
2024/01/07 10:03:43;;;;;;;;;;;20.10;50.10;;;;;;5031331;28;19929;-61
2024/01/07 10:06:10;;;;;;;;;;;20.10;50.00;;;;;;5014464;28;19925;-60
2024/01/07 10:08:35;;;;;;;;;;;20.10;50.10;;;;;;5030950;28;19968;-61
2024/01/07 10:11:02;;;;;;;;;;;20.10;50.00;;;;;;5032290;28;20344;-60
2024/01/07 10:13:27;;;;;;;;;;;20.00;50.60;;;;;;5015672;28;19964;-61
2024/01/07 10:15:53;;;;;;;;;;;20.00;49.90;;;;;;5033074;28;19933;-60
2024/01/07 10:18:18;;;;;;;;;;;20.00;50.10;;;;;;4998183;28;19932;-61
2024/01/07 10:20:44;;;;;;;;;;;20.00;49.80;;;;;;5033859;28;19927;-60
2024/01/07 10:23:10;;;;;;;;;;;20.00;49.70;;;;;;5032858;28;19932;-60
2024/01/07 10:25:35;;;;;;;;;;;19.90;49.80;;;;;;5033815;28;19929;-60
2024/01/07 10:28:01;;;;;;;;;;;19.90;50.00;;;;;;5032558;28;19952;-61
2024/01/07 10:30:27;;;;;;;;;;;19.90;50.00;;;;;;5033334;28;19932;-64
2024/01/07 10:32:59;;;;;;;;;;;19.90;50.00;;;;;;5032447;28;19929;-61
2024/01/07 10:35:28;;;;;;;;;;;19.90;50.20;;;;;;5035158;28;20375;-61
2024/01/07 10:37:53;;;;;;;;;;;19.90;50.30;;;;;;5029808;28;19929;-61
2024/01/07 10:40:19;;;;;;;;;;;19.90;50.40;;;;;;5032603;28;20016;-60
2024/01/07 10:42:44;;;;;;;;;;;19.90;50.40;;;;;;5033299;28;19940;-61
2024/01/07 10:45:10;;;;;;;;;;;19.90;50.60;;;;;;5032035;28;20019;-60
2024/01/07 10:47:36;;;;;;;;;;;19.90;50.80;;;;;;5033119;28;19929;-60
2024/01/07 10:50:01;;;;;;;;;;;19.90;50.90;;;;;;5032741;28;19932;-60
2024/01/07 10:52:27;;;;;;;;;;;19.90;50.80;;;;;;5032648;28;20381;-60
2024/01/07 10:54:53;;;;;;;;;;;19.90;51.10;;;;;;5032416;28;19948;-60
2024/01/07 10:57:35;;;;;;;;;;;19.90;51.00;;;;;;5033278;28;19925;-60
2024/01/07 11:00:06;;;;;;;;;;;19.80;51.00;;;;;;5032047;28;19929;-60
2024/01/07 11:02:32;;;;;;;;;;;19.80;51.00;;;;;;5032859;28;19925;-60
2024/01/07 11:04:57;;;;;;;;;;;19.90;51.00;;;;;;5032338;28;19979;-60
2024/01/07 11:07:32;;;;;;;;;;;19.90;51.00;;;;;;5032303;28;19929;-60
2024/01/07 11:10:06;;;;;;;;;;;19.90;50.90;;;;;;5015435;28;19925;-61
2024/01/07 11:12:31;;;;;;;;;;;19.90;50.90;;;;;;5014533;28;19925;-60
2024/01/07 11:14:58;;;;;;;;;;;19.90;51.10;;;;;;5031162;28;19925;-58
2024/01/07 11:17:39;;;;;;;;;;;19.90;51.20;;;;;;5034018;28;19925;-59
2024/01/07 11:20:06;;;;;;;;;;;19.90;51.30;;;;;;5033901;28;19925;-60
2024/01/07 11:22:32;;;;;;;;;;;19.90;51.30;;;;;;5036227;28;19926;-60
2024/01/07 11:24:59;;;;;;;;;;;20.00;51.40;;;;;;5018094;28;19925;-59
2024/01/07 11:27:25;;;;;;;;;;;20.00;51.40;;;;;;5035590;28;19925;-59
2024/01/07 11:29:56;;;;;;;;;;;20.00;51.20;;;;;;5012900;28;19931;-60
2024/01/07 11:32:23;;;;;;;;;;;20.00;51.30;;;;;;5030308;28;19925;-60
2024/01/07 11:34:52;;;;;;;;;;;20.00;51.20;;;;;;5035520;28;20273;-60
2024/01/07 11:37:18;;;;;;;;;;;20.00;51.20;;;;;;5036156;28;19925;-60
2024/01/07 11:39:46;;;;;;;;;;;20.00;51.20;;;;;;5036477;28;20016;-61
2024/01/07 11:42:12;;;;;;;;;;;20.00;51.10;;;;;;5022383;28;19929;-60
2024/01/07 11:44:44;;;;;;;;;;;20.10;51.20;;;;;;5033615;28;19974;-61
2024/01/07 11:47:10;;;;;;;;;;;20.10;51.20;;;;;;5009202;28;20277;-60
2024/01/07 11:49:35;;;;;;;;;;;20.10;51.20;;;;;;5031492;28;20079;-60
2024/01/07 11:52:02;;;;;;;;;;;20.10;51.10;;;;;;5015992;28;19925;-60
2024/01/07 11:54:27;;;;;;;;;;;20.10;50.90;;;;;;5016631;28;20373;-60
2024/01/07 11:56:53;;;;;;;;;;;20.10;50.60;;;;;;5015539;28;19926;-60
2024/01/07 11:59:19;;;;;;;;;;;20.10;50.60;;;;;;5016410;28;19925;-60
2024/01/07 12:01:44;;;;;;;;;;;20.10;50.60;;;;;;5042976;28;19925;-60
2024/01/07 12:04:11;;;;;;;;;;;20.10;50.60;;;;;;5054889;28;19932;-60
2024/01/07 12:06:37;;;;;;;;;;;20.10;50.60;;;;;;5056133;28;20331;-60
2024/01/07 12:09:03;;;;;;;;;;;20.10;50.60;;;;;;5055998;28;19921;-60
2024/01/07 12:11:28;;;;;;;;;;;20.10;50.60;;;;;;5055299;28;19925;-61
2024/01/07 12:13:54;;;;;;;;;;;20.10;50.50;;;;;;5055631;28;19975;-60
2024/01/07 12:16:20;;;;;;;;;;;20.10;50.50;;;;;;5032638;28;20299;-60
2024/01/07 12:18:46;;;;;;;;;;;20.10;50.50;;;;;;5035824;28;20020;-60
2024/01/07 12:21:12;;;;;;;;;;;20.00;50.50;;;;;;5035463;28;19925;-60
2024/01/07 12:23:38;;;;;;;;;;;20.00;50.50;;;;;;5017079;28;19935;-60
2024/01/07 12:26:10;;;;;;;;;;;20.00;50.50;;;;;;5034721;28;20019;-60
2024/01/07 12:28:36;;;;;;;;;;;20.00;50.50;;;;;;5034384;28;19929;-60
2024/01/07 12:31:02;;;;;;;;;;;20.00;50.50;;;;;;5048721;28;19933;-61
2024/01/07 12:33:30;;;;;;;;;;;20.00;50.60;;;;;;5055581;28;19925;-60
2024/01/07 12:35:55;;;;;;;;;;;20.00;50.60;;;;;;5055271;28;19978;-61
2024/01/07 12:38:24;;;;;;;;;;;20.00;50.50;;;;;;5055113;28;19924;-61
2024/01/07 12:40:50;;;;;;;;;;;20.00;50.60;;;;;;5037581;28;19974;-61
2024/01/07 12:43:15;;;;;;;;;;;20.00;50.60;;;;;;5037236;28;19929;-61
2024/01/07 12:45:41;;;;;;;;;;;20.00;50.50;;;;;;5036883;28;20283;-61
2024/01/07 12:48:06;;;;;;;;;;;20.00;50.50;;;;;;5055264;28;19956;-61
2024/01/07 12:50:32;;;;;;;;;;;20.00;50.50;;;;;;5027694;28;20037;-61
2024/01/07 12:52:58;;;;;;;;;;;20.00;50.50;;;;;;5034380;28;19925;-61
2024/01/07 12:55:25;;;;;;;;;;;20.00;50.40;;;;;;5017489;28;19929;-61
2024/01/07 12:57:50;;;;;;;;;;;20.00;50.50;;;;;;5035156;28;19932;-61
2024/01/07 13:00:16;;;;;;;;;;;20.10;50.50;;;;;;5023444;28;19925;-61
2024/01/07 13:02:42;;;;;;;;;;;20.10;50.50;;;;;;5054911;28;20011;-61
2024/01/07 13:05:07;;;;;;;;;;;20.00;50.50;;;;;;5054850;28;20341;-61
2024/01/07 13:07:33;;;;;;;;;;;20.00;50.40;;;;;;5036683;28;19924;-61
2024/01/07 13:09:58;;;;;;;;;;;20.10;50.50;;;;;;5036788;28;20364;-61
2024/01/07 13:12:24;;;;;;;;;;;20.10;50.40;;;;;;5054594;28;19932;-60
2024/01/07 13:14:50;;;;;;;;;;;20.00;50.40;;;;;;5053500;28;19986;-60
2024/01/07 13:17:15;;;;;;;;;;;20.10;50.40;;;;;;5053764;28;19979;-60
2024/01/07 13:19:41;;;;;;;;;;;20.10;49.70;;;;;;5035891;28;19936;-60
2024/01/07 13:22:07;;;;;;;;;;;20.10;49.90;;;;;;5053933;28;20429;-61
2024/01/07 13:24:32;;;;;;;;;;;20.10;50.00;;;;;;5052807;28;20004;-61
2024/01/07 13:26:58;;;;;;;;;;;20.10;50.10;;;;;;5051338;28;19924;-62
2024/01/07 13:29:24;;;;;;;;;;;20.10;50.10;;;;;;5052504;28;19979;-62
2024/01/07 13:31:50;;;;;;;;;;;20.10;50.00;;;;;;5054443;28;19932;-62
2024/01/07 13:34:15;;;;;;;;;;;20.10;49.90;;;;;;5035451;28;20134;-62
2024/01/07 13:36:41;;;;;;;;;;;20.20;49.90;;;;;;5053717;28;19925;-62
2024/01/07 13:39:07;;;;;;;;;;;20.20;49.90;;;;;;5036386;28;19939;-62
2024/01/07 13:41:33;;;;;;;;;;;20.20;49.90;;;;;;5053332;28;19925;-61
2024/01/07 13:43:59;;;;;;;;;;;20.20;49.80;;;;;;5035706;28;19925;-63
2024/01/07 13:46:26;;;;;;;;;;;20.20;49.90;;;;;;5013861;28;20148;-62
2024/01/07 13:48:52;;;;;;;;;;;20.20;50.00;;;;;;5028022;28;20372;-61
2024/01/07 13:51:17;;;;;;;;;;;20.20;50.20;;;;;;5015883;28;19948;-61
2024/01/07 13:53:45;;;;;;;;;;;20.20;50.30;;;;;;5031432;28;20135;-61
2024/01/07 13:56:10;;;;;;;;;;;20.20;50.40;;;;;;5011197;28;20364;-61
2024/01/07 13:58:36;;;;;;;;;;;20.20;50.40;;;;;;5031070;28;20412;-61
2024/01/07 14:01:02;;;;;;;;;;;20.20;50.50;;;;;;5033536;28;19931;-62
2024/01/07 14:03:30;;;;;;;;;;;20.30;50.60;;;;;;5032480;28;19925;-61
2024/01/07 14:05:55;;;;;;;;;;;20.30;50.60;;;;;;5012395;28;19932;-61
2024/01/07 14:08:21;;;;;;;;;;;20.30;50.80;;;;;;5010236;28;19921;-61